createdAt,value
2024-05-09T00:00:45.071Z,61.01
2024-05-09T00:03:32.924Z,61.46
2024-05-09T00:06:00.998Z,61.63
2024-05-09T00:08:29.006Z,61.80
2024-05-09T00:10:57.044Z,61.93
2024-05-09T00:13:24.790Z,61.93
2024-05-09T00:15:52.524Z,62.33
2024-05-09T00:18:20.359Z,62.47
2024-05-09T00:20:48.449Z,62.86
2024-05-09T00:23:16.234Z,63.15
2024-05-09T00:25:44.658Z,63.38
2024-05-09T00:28:13.452Z,63.38
2024-05-09T00:30:41.315Z,63.48
2024-05-09T00:33:10.554Z,63.36
2024-05-09T00:35:39.786Z,63.35
2024-05-09T00:38:08.145Z,63.61
2024-05-09T00:40:42.082Z,63.65
2024-05-09T00:43:12.848Z,63.93
2024-05-09T00:45:42.170Z,63.97
2024-05-09T00:48:14.324Z,64.14
2024-05-09T00:50:48.213Z,64.42
2024-05-09T00:53:18.275Z,64.58
2024-05-09T00:55:47.501Z,64.60
2024-05-09T00:58:18.161Z,64.89
2024-05-09T01:00:46.454Z,64.65
2024-05-09T01:03:14.691Z,64.84
2024-05-09T01:05:44.275Z,64.86
2024-05-09T01:08:13.079Z,65.15
2024-05-09T01:10:44.195Z,65.21
2024-05-09T01:13:14.124Z,65.38
2024-05-09T01:15:42.631Z,65.56
2024-05-09T01:18:12.536Z,65.83
2024-05-09T01:20:44.233Z,65.97
2024-05-09T01:23:15.350Z,66.09
2024-05-09T01:25:46.072Z,66.16
2024-05-09T01:28:14.947Z,66.38
2024-05-09T01:30:42.677Z,66.55
2024-05-09T01:33:12.308Z,66.71
2024-05-09T01:35:42.214Z,66.76
2024-05-09T01:38:17.102Z,66.96
2024-05-09T01:40:46.386Z,67.02
2024-05-09T01:43:14.510Z,67.19
2024-05-09T01:45:42.933Z,67.32
2024-05-09T01:48:11.445Z,67.50
2024-05-09T01:50:42.236Z,67.50
2024-05-09T01:53:13.531Z,67.63
2024-05-09T01:55:42.397Z,67.65
2024-05-09T01:58:10.478Z,67.84
2024-05-09T02:00:42.213Z,67.98
2024-05-09T02:03:15.744Z,68.20
2024-05-09T02:05:47.720Z,68.36
2024-05-09T02:08:19.190Z,68.47
2024-05-09T02:10:49.490Z,68.64
2024-05-09T02:13:18.315Z,68.82
2024-05-09T02:15:46.136Z,68.99
2024-05-09T02:18:14.392Z,69.10
2024-05-09T02:20:43.136Z,69.10
2024-05-09T02:23:12.127Z,69.17
2024-05-09T02:25:41.520Z,69.33
2024-05-09T02:28:09.359Z,69.52
2024-05-09T02:30:40.702Z,69.62
2024-05-09T02:33:12.402Z,69.64
2024-05-09T02:35:43.740Z,69.88
2024-05-09T02:38:12.504Z,70.01
2024-05-09T02:40:40.806Z,70.07
2024-05-09T02:43:10.701Z,70.12
2024-05-09T02:45:40.067Z,70.27
2024-05-09T02:48:13.200Z,70.25
2024-05-09T02:50:44.256Z,70.38
2024-05-09T02:53:13.129Z,70.58
2024-05-09T02:55:42.564Z,70.54
2024-05-09T02:58:11.013Z,70.85
2024-05-09T03:00:41.607Z,70.58
2024-05-09T03:03:13.490Z,70.84
2024-05-09T03:05:44.772Z,70.90
2024-05-09T03:08:13.300Z,70.97
2024-05-09T03:10:41.288Z,71.01
2024-05-09T03:13:12.651Z,71.23
2024-05-09T03:15:41.836Z,71.32
2024-05-09T03:18:12.335Z,71.55
2024-05-09T03:20:40.895Z,71.62
2024-05-09T03:23:09.895Z,71.67
2024-05-09T03:25:38.980Z,71.65
2024-05-09T03:28:07.193Z,71.88
2024-05-09T03:30:40.401Z,71.92
2024-05-09T03:33:12.184Z,72.24
2024-05-09T03:35:41.305Z,72.33
2024-05-09T03:38:09.241Z,72.55
2024-05-09T03:40:37.241Z,72.78
2024-05-09T03:43:04.924Z,72.97
2024-05-09T03:45:32.556Z,73.17
2024-05-09T03:48:00.408Z,73.38
2024-05-09T03:50:33.842Z,73.50
2024-05-09T03:53:03.849Z,73.68
2024-05-09T03:55:31.740Z,74.01
2024-05-09T03:57:59.798Z,74.21
2024-05-09T04:00:35.543Z,74.38
2024-05-09T04:03:08.794Z,74.59
2024-05-09T04:05:40.594Z,74.84
2024-05-09T04:08:10.100Z,75.04
2024-05-09T04:10:38.255Z,75.40
2024-05-09T04:13:05.970Z,75.67
2024-05-09T04:15:33.694Z,75.79
2024-05-09T04:18:02.183Z,75.72
2024-05-09T04:20:37.799Z,75.67
2024-05-09T04:23:11.905Z,75.77
2024-05-09T04:25:45.125Z,75.50
2024-05-09T04:28:13.917Z,75.27
2024-05-09T04:30:42.503Z,74.90
2024-05-09T04:33:13.409Z,74.67
2024-05-09T04:35:43.485Z,74.61
2024-05-09T04:38:13.808Z,74.86
2024-05-09T04:40:42.307Z,74.67
2024-05-09T04:43:19.306Z,74.74
2024-05-09T04:45:47.707Z,74.64
2024-05-09T04:48:16.692Z,74.26
2024-05-09T04:50:44.885Z,74.33
2024-05-09T04:53:16.113Z,74.00
2024-05-09T04:55:44.567Z,74.00
2024-05-09T04:58:12.540Z,73.66
2024-05-09T05:00:41.417Z,72.98
2024-05-09T05:03:13.797Z,72.61
2024-05-09T05:05:45.957Z,72.45
2024-05-09T05:08:19.001Z,72.52
2024-05-09T05:10:48.650Z,72.41
2024-05-09T05:13:20.382Z,72.08
2024-05-09T05:15:51.550Z,71.45
2024-05-09T05:18:19.852Z,71.18
2024-05-09T05:20:48.260Z,70.83
2024-05-09T05:23:20.244Z,70.09
2024-05-09T05:25:49.585Z,69.60
2024-05-09T05:28:18.043Z,69.47
2024-05-09T05:30:46.895Z,67.35
2024-05-09T05:33:15.885Z,66.35
2024-05-09T05:35:44.238Z,65.26
2024-05-09T05:38:12.270Z,64.68
2024-05-09T05:40:40.913Z,63.78
2024-05-09T05:43:15.825Z,63.00
2024-05-09T05:45:45.220Z,61.14
2024-05-09T05:48:16.551Z,60.76
2024-05-09T05:50:44.975Z,60.20
2024-05-09T05:53:13.263Z,59.29
2024-05-09T05:55:42.169Z,59.63
2024-05-09T05:58:11.030Z,58.12
2024-05-09T06:00:41.088Z,57.47
2024-05-09T06:03:10.783Z,56.98
2024-05-09T06:05:46.590Z,56.92
2024-05-09T06:08:14.668Z,57.09
2024-05-09T06:10:42.786Z,56.18
2024-05-09T06:13:13.110Z,55.55
2024-05-09T06:15:42.021Z,55.68
2024-05-09T06:18:11.278Z,56.43
2024-05-09T06:20:43.123Z,56.55
2024-05-09T06:23:12.772Z,57.03
2024-05-09T06:25:42.024Z,55.77
2024-05-09T06:28:12.414Z,55.65
2024-05-09T06:30:42.327Z,54.89
2024-05-09T06:33:14.125Z,55.26
2024-05-09T06:35:44.665Z,54.57
2024-05-09T06:38:13.430Z,54.16
2024-05-09T06:40:43.658Z,53.74
2024-05-09T06:43:17.632Z,52.33
2024-05-09T06:45:48.550Z,51.25
2024-05-09T06:48:21.741Z,51.34
2024-05-09T06:50:50.585Z,51.02
2024-05-09T06:53:23.146Z,50.82
2024-05-09T06:55:50.892Z,50.89
2024-05-09T06:58:18.696Z,51.42
2024-05-09T07:00:46.900Z,50.68
2024-05-09T07:03:17.111Z,50.97
2024-05-09T07:05:48.326Z,50.53
2024-05-09T07:08:17.948Z,50.17
2024-05-09T07:10:46.243Z,49.73
2024-05-09T07:13:15.250Z,48.23
2024-05-09T07:15:43.639Z,48.30
2024-05-09T07:18:12.581Z,47.83
2024-05-09T07:20:40.945Z,47.91
2024-05-09T07:23:10.462Z,47.65
2024-05-09T07:25:40.594Z,46.91
2024-05-09T07:28:18.622Z,47.30
2024-05-09T07:30:46.906Z,46.85
2024-05-09T07:33:20.027Z,45.66
2024-05-09T07:35:49.493Z,45.83
2024-05-09T07:38:17.323Z,45.97
2024-05-09T07:40:45.172Z,45.40
2024-05-09T07:43:13.902Z,45.22
2024-05-09T07:45:50.820Z,44.88
2024-05-09T07:52:38.435Z,43.15
2024-05-09T07:53:47.142Z,42.65
2024-05-09T07:56:19.832Z,42.72
2024-05-09T07:58:50.699Z,42.51
2024-05-09T08:01:19.484Z,41.65
2024-05-09T08:03:50.497Z,41.77
2024-05-09T08:06:18.758Z,41.59
2024-05-09T08:08:47.636Z,41.19
2024-05-09T08:11:15.880Z,40.44
2024-05-09T08:13:43.613Z,40.42
2024-05-09T08:16:14.406Z,40.20
2024-05-09T08:18:42.596Z,39.50
2024-05-09T08:21:10.605Z,39.97
2024-05-09T08:23:38.553Z,39.21
2024-05-09T08:26:06.308Z,38.64
2024-05-09T08:28:34.083Z,37.93
2024-05-09T08:31:05.168Z,38.19
2024-05-09T08:33:35.028Z,38.43
2024-05-09T08:36:03.236Z,38.16
2024-05-09T08:38:31.500Z,37.84
2024-05-09T08:41:03.871Z,37.65
2024-05-09T08:43:31.702Z,37.82
2024-05-09T08:46:00.190Z,36.56
2024-05-09T08:48:29.689Z,36.62
2024-05-09T08:50:59.340Z,37.67
2024-05-09T08:53:27.303Z,37.60
2024-05-09T08:55:59.926Z,37.18
2024-05-09T08:58:30.304Z,36.63
2024-05-09T09:01:00.234Z,35.99
2024-05-09T09:03:32.821Z,35.96
2024-05-09T09:06:07.205Z,35.48
2024-05-09T09:08:38.639Z,35.69
2024-05-09T09:11:07.076Z,35.04
2024-05-09T09:13:34.927Z,36.26
2024-05-09T09:16:03.527Z,35.60
2024-05-09T09:18:32.769Z,35.07
2024-05-09T09:21:02.945Z,35.87
2024-05-09T09:23:31.031Z,36.32
2024-05-09T09:26:00.034Z,35.05
2024-05-09T09:28:28.116Z,35.14
2024-05-09T09:31:03.394Z,35.59
2024-05-09T09:33:32.063Z,33.91
2024-05-09T09:36:02.922Z,33.38
2024-05-09T09:38:32.564Z,33.55
2024-05-09T09:41:05.829Z,34.03
2024-05-09T09:43:34.041Z,33.98
2024-05-09T09:46:02.579Z,34.27
2024-05-09T09:48:32.395Z,34.44
2024-05-09T09:51:00.790Z,33.18
2024-05-09T09:53:29.250Z,32.96
2024-05-09T09:55:59.012Z,33.07
2024-05-09T09:58:29.033Z,33.72
2024-05-09T10:00:57.073Z,34.50
2024-05-09T10:03:25.115Z,34.02
2024-05-09T10:05:54.888Z,34.74
2024-05-09T10:08:23.663Z,33.96
2024-05-09T10:10:51.688Z,33.58
2024-05-09T10:13:19.950Z,33.21
2024-05-09T10:15:53.060Z,33.30
2024-05-09T10:18:27.039Z,33.72
2024-05-09T10:20:57.765Z,33.48
2024-05-09T10:23:27.777Z,33.17
2024-05-09T10:26:00.522Z,32.75
2024-05-09T10:28:32.915Z,32.67
2024-05-09T10:31:07.345Z,32.10
2024-05-09T10:33:56.272Z,31.69
2024-05-09T10:36:28.933Z,32.42
2024-05-09T10:38:56.660Z,32.83
2024-05-09T10:41:24.480Z,33.57
2024-05-09T10:43:52.387Z,33.15
2024-05-09T10:46:20.699Z,33.67
2024-05-09T10:48:50.597Z,32.27
2024-05-09T10:51:21.479Z,31.58
2024-05-09T10:53:49.311Z,31.57
2024-05-09T10:56:17.528Z,32.34
2024-05-09T10:58:45.442Z,32.55
2024-05-09T11:01:13.989Z,32.72
2024-05-09T11:03:46.986Z,32.58
2024-05-09T11:06:16.245Z,31.99
2024-05-09T11:08:45.889Z,32.72
2024-05-09T11:11:14.054Z,32.87
2024-05-09T11:13:42.137Z,32.92
2024-05-09T11:16:19.860Z,33.24
2024-05-09T11:18:58.226Z,32.50
2024-05-09T11:21:26.677Z,33.03
2024-05-09T11:23:54.812Z,32.44
2024-05-09T11:26:25.562Z,33.34
2024-05-09T11:28:53.626Z,33.02
2024-05-09T11:31:21.862Z,32.98
2024-05-09T11:33:50.128Z,33.24
2024-05-09T11:36:17.989Z,32.87
2024-05-09T11:38:45.781Z,32.58
2024-05-09T11:41:18.267Z,33.13
2024-05-09T11:43:46.012Z,32.77
2024-05-09T11:46:14.077Z,32.95
2024-05-09T11:48:42.153Z,32.47
2024-05-09T11:51:10.191Z,31.76
2024-05-09T11:53:37.849Z,31.71
2024-05-09T11:56:05.926Z,31.78
2024-05-09T11:58:34.874Z,31.36
2024-05-09T12:01:02.868Z,31.81
2024-05-09T12:03:31.205Z,31.87
2024-05-09T12:05:59.364Z,32.87
2024-05-09T12:08:27.446Z,33.16
2024-05-09T12:10:55.435Z,32.58
2024-05-09T12:13:23.716Z,33.20
2024-05-09T12:15:51.776Z,32.25
2024-05-09T12:18:19.695Z,32.92
2024-05-09T12:20:47.506Z,33.25
2024-05-09T12:23:15.205Z,32.72
2024-05-09T12:25:43.295Z,32.31
2024-05-09T12:28:11.094Z,31.93
2024-05-09T12:30:40.657Z,32.83
2024-05-09T12:33:12.079Z,33.12
2024-05-09T12:35:44.120Z,32.81
2024-05-09T12:38:18.115Z,32.26
2024-05-09T12:40:45.816Z,31.93
2024-05-09T12:43:13.727Z,32.14
2024-05-09T12:45:41.459Z,32.12
2024-05-09T12:48:13.062Z,32.12
2024-05-09T12:50:41.892Z,32.13
2024-05-09T12:53:10.133Z,32.25
2024-05-09T12:55:44.922Z,31.75
2024-05-09T12:58:24.435Z,31.50
2024-05-09T13:00:52.734Z,31.07
2024-05-09T13:03:21.778Z,31.35
2024-05-09T13:05:50.816Z,31.66
2024-05-09T13:08:19.491Z,31.45
2024-05-09T13:10:47.630Z,31.44
2024-05-09T13:13:15.667Z,31.23
2024-05-09T13:15:43.478Z,31.33
2024-05-09T13:18:11.537Z,32.10
2024-05-09T13:20:39.286Z,32.08
2024-05-09T13:23:08.346Z,31.62
2024-05-09T13:25:38.035Z,31.71
2024-05-09T13:28:07.639Z,31.68
2024-05-09T13:30:40.434Z,31.66
2024-05-09T13:33:12.042Z,32.07
2024-05-09T13:35:46.657Z,32.10
2024-05-09T13:38:18.490Z,31.86
2024-05-09T13:40:47.630Z,31.18
2024-05-09T13:43:15.927Z,31.08
2024-05-09T13:45:44.112Z,31.56
2024-05-09T13:48:12.715Z,31.73
2024-05-09T13:50:41.116Z,32.20
2024-05-09T13:53:09.303Z,31.52
2024-05-09T13:55:38.901Z,31.17
2024-05-09T13:58:08.329Z,31.54
2024-05-09T14:00:45.146Z,31.67
2024-05-09T14:03:19.675Z,31.65
2024-05-09T14:05:51.093Z,31.72
2024-05-09T14:08:21.655Z,31.53
2024-05-09T14:10:50.099Z,31.72
2024-05-09T14:13:18.531Z,31.09
2024-05-09T14:15:46.728Z,30.73
2024-05-09T14:18:15.158Z,30.01
2024-05-09T14:20:43.534Z,29.28
2024-05-09T14:23:11.404Z,29.83
2024-05-09T14:25:42.139Z,30.64
2024-05-09T14:28:12.960Z,31.34
2024-05-09T14:30:42.206Z,30.82
2024-05-09T14:33:11.411Z,31.03
2024-05-09T14:35:39.770Z,30.80
2024-05-09T14:38:09.039Z,30.85
2024-05-09T14:40:42.182Z,30.92
2024-05-09T14:43:13.824Z,31.25
2024-05-09T14:45:43.393Z,30.51
2024-05-09T14:48:14.781Z,30.53
2024-05-09T14:50:43.531Z,30.18
2024-05-09T14:53:14.108Z,30.51
2024-05-09T14:55:43.412Z,30.17
2024-05-09T14:58:12.804Z,30.55
2024-05-09T15:00:46.456Z,29.47
2024-05-09T15:03:19.813Z,29.82
2024-05-09T15:05:49.251Z,30.66
2024-05-09T15:08:18.739Z,30.76
2024-05-09T15:10:49.582Z,30.93
2024-05-09T15:13:19.465Z,30.62
2024-05-09T15:15:48.136Z,30.37
2024-05-09T15:18:16.914Z,30.54
2024-05-09T15:20:45.449Z,30.64
2024-05-09T15:23:13.745Z,30.24
2024-05-09T15:25:41.625Z,30.19
2024-05-09T15:28:09.860Z,30.62
2024-05-09T15:30:37.993Z,31.18
2024-05-09T15:33:07.409Z,31.24
2024-05-09T15:35:36.337Z,30.85
2024-05-09T15:38:04.957Z,30.94
2024-05-09T15:40:39.398Z,30.72
2024-05-09T15:43:10.171Z,31.28
2024-05-09T15:45:40.856Z,30.61
2024-05-09T15:48:10.550Z,30.60
2024-05-09T15:50:41.420Z,30.82
2024-05-09T15:53:12.553Z,31.06
2024-05-09T15:55:42.484Z,31.55
2024-05-09T15:58:11.668Z,31.57
2024-05-09T16:00:42.626Z,31.60
2024-05-09T16:03:14.053Z,31.21
2024-05-09T16:05:46.144Z,31.59
2024-05-09T16:08:14.850Z,31.65
2024-05-09T16:10:45.804Z,31.44
2024-05-09T16:13:15.933Z,32.11
2024-05-09T16:15:44.467Z,32.18
2024-05-09T16:18:12.803Z,31.82
2024-05-09T16:20:42.569Z,32.18
2024-05-09T16:23:12.688Z,32.40
2024-05-09T16:25:45.213Z,32.15
2024-05-09T16:28:13.579Z,31.94
2024-05-09T16:30:41.832Z,32.06
2024-05-09T16:33:12.828Z,32.26
2024-05-09T16:35:40.886Z,32.18
2024-05-09T16:38:08.863Z,32.45
2024-05-09T16:40:40.361Z,32.30
2024-05-09T16:43:11.335Z,32.71
2024-05-09T16:45:41.258Z,32.57
2024-05-09T16:48:09.369Z,33.06
2024-05-09T16:50:38.013Z,32.95
2024-05-09T16:53:06.561Z,33.03
2024-05-09T16:55:36.130Z,33.01
2024-05-09T16:58:06.496Z,33.34
2024-05-09T17:00:40.787Z,32.88
2024-05-09T17:03:15.539Z,33.13
2024-05-09T17:05:48.314Z,33.68
2024-05-09T17:08:20.062Z,34.17
2024-05-09T17:10:48.967Z,34.36
2024-05-09T17:13:18.141Z,34.73
2024-05-09T17:15:46.796Z,35.20
2024-05-09T17:18:15.681Z,35.81
2024-05-09T17:20:43.470Z,35.19
2024-05-09T17:23:14.424Z,35.36
2024-05-09T17:25:43.476Z,35.79
2024-05-09T17:28:12.009Z,36.18
2024-05-09T17:30:41.807Z,36.11
2024-05-09T17:33:12.186Z,36.29
2024-05-09T17:35:41.467Z,36.67
2024-05-09T17:38:09.353Z,36.49
2024-05-09T17:40:38.652Z,36.99
2024-05-09T17:43:09.391Z,37.33
2024-05-09T17:45:40.368Z,37.31
2024-05-09T17:48:11.947Z,37.75
2024-05-09T17:50:41.683Z,37.93
2024-05-09T17:53:10.725Z,38.34
2024-05-09T17:55:39.709Z,38.95
2024-05-09T17:58:07.956Z,39.79
2024-05-09T18:00:39.712Z,40.23
2024-05-09T18:03:14.358Z,40.62
2024-05-09T18:05:44.770Z,41.08
2024-05-09T18:08:13.908Z,41.78
2024-05-09T18:10:42.691Z,42.44
2024-05-09T18:13:12.507Z,42.67
2024-05-09T18:15:41.108Z,43.11
2024-05-09T18:18:10.575Z,43.77
2024-05-09T18:20:43.779Z,43.94
2024-05-09T18:23:16.495Z,44.16
2024-05-09T18:25:46.878Z,44.72
2024-05-09T18:28:15.645Z,45.16
2024-05-09T18:30:44.234Z,45.79
2024-05-09T18:33:12.430Z,46.35
2024-05-09T18:35:44.486Z,46.88
2024-05-09T18:38:12.761Z,47.24
2024-05-09T18:40:42.985Z,47.95
2024-05-09T18:43:13.170Z,48.32
2024-05-09T18:45:40.998Z,48.13
2024-05-09T18:48:09.893Z,48.62
2024-05-09T18:50:40.627Z,49.10
2024-05-09T18:53:11.795Z,49.64
2024-05-09T18:55:41.922Z,49.96
2024-05-09T18:58:11.145Z,50.15
2024-05-09T19:00:41.615Z,50.62
2024-05-09T19:03:13.825Z,51.02
2024-05-09T19:05:44.710Z,51.03
2024-05-09T19:08:15.045Z,50.97
2024-05-09T19:10:45.326Z,51.04
2024-05-09T19:13:14.368Z,51.25
2024-05-09T19:15:43.812Z,51.90
2024-05-09T19:18:13.687Z,52.22
2024-05-09T19:20:42.494Z,52.42
2024-05-09T19:23:11.429Z,52.61
2024-05-09T19:25:39.409Z,52.82
2024-05-09T19:28:07.282Z,53.17
2024-05-09T19:30:40.283Z,53.37
2024-05-09T19:33:12.808Z,53.28
2024-05-09T19:35:42.631Z,53.73
2024-05-09T19:38:11.108Z,54.13
2024-05-09T19:40:38.961Z,54.21
2024-05-09T19:43:07.054Z,54.52
2024-05-09T19:45:36.095Z,54.66
2024-05-09T19:48:06.292Z,54.88
2024-05-09T19:50:41.138Z,55.46
2024-05-09T19:53:13.331Z,55.52
2024-05-09T19:55:41.892Z,55.90
2024-05-09T19:58:10.448Z,56.26
2024-05-09T20:00:41.465Z,56.58
2024-05-09T20:03:13.163Z,56.72
2024-05-09T20:05:44.686Z,56.90
2024-05-09T20:08:12.859Z,57.14
2024-05-09T20:10:40.611Z,57.25
2024-05-09T20:13:08.974Z,57.63
2024-05-09T20:15:38.511Z,57.90
2024-05-09T20:18:07.299Z,58.39
2024-05-09T20:20:39.723Z,58.59
2024-05-09T20:23:11.519Z,58.89
2024-05-09T20:25:40.244Z,59.32
2024-05-09T20:28:08.271Z,59.27
2024-05-09T20:30:36.731Z,59.34
2024-05-09T20:33:09.275Z,59.58
2024-05-09T20:35:38.101Z,59.75
2024-05-09T20:38:06.006Z,59.83
2024-05-09T20:40:37.719Z,60.07
2024-05-09T20:43:09.252Z,60.05
2024-05-09T20:45:37.625Z,60.16
2024-05-09T20:48:06.469Z,60.41
2024-05-09T20:50:39.423Z,60.61
2024-05-09T20:53:11.995Z,60.59
2024-05-09T20:55:40.454Z,60.81
2024-05-09T20:58:09.236Z,60.98
2024-05-09T21:00:40.962Z,61.25
2024-05-09T21:03:12.840Z,61.37
2024-05-09T21:05:41.415Z,61.53
2024-05-09T21:08:09.790Z,61.62
2024-05-09T21:10:37.943Z,61.76
2024-05-09T21:13:06.715Z,62.10
2024-05-09T21:15:35.904Z,62.36
2024-05-09T21:18:04.667Z,62.18
2024-05-09T21:20:34.591Z,62.13
2024-05-09T21:23:03.439Z,62.29
2024-05-09T21:25:31.997Z,62.46
2024-05-09T21:28:00.810Z,62.58
2024-05-09T21:30:38.497Z,62.85
2024-05-09T21:33:14.682Z,63.01
2024-05-09T21:35:44.408Z,63.28
2024-05-09T21:38:14.484Z,63.38
2024-05-09T21:40:43.531Z,63.60
2024-05-09T21:43:11.506Z,63.77
2024-05-09T21:45:39.413Z,63.76
2024-05-09T21:48:07.713Z,63.79
2024-05-09T21:50:40.081Z,63.95
2024-05-09T21:53:11.913Z,64.10
2024-05-09T21:55:40.324Z,64.00
2024-05-09T21:58:08.172Z,64.15
2024-05-09T22:00:39.403Z,64.23
2024-05-09T22:03:08.413Z,64.31
2024-05-09T22:05:39.001Z,64.27
2024-05-09T22:08:07.376Z,64.32
2024-05-09T22:10:36.599Z,64.59
2024-05-09T22:13:06.478Z,64.75
2024-05-09T22:15:37.200Z,64.89
2024-05-09T22:18:07.614Z,65.14
2024-05-09T22:20:38.661Z,65.48
2024-05-09T22:23:08.583Z,65.62
2024-05-09T22:25:38.511Z,66.15
2024-05-09T22:28:07.297Z,66.28
2024-05-09T22:30:38.595Z,66.41
2024-05-09T22:33:10.364Z,66.56
2024-05-09T22:35:40.595Z,66.71
2024-05-09T22:38:08.917Z,66.81
2024-05-09T22:40:45.506Z,66.88
2024-05-09T22:43:18.999Z,67.19
2024-05-09T22:45:47.590Z,67.29
2024-05-09T22:48:15.698Z,67.54
2024-05-09T22:50:43.967Z,67.74
2024-05-09T22:53:11.711Z,67.75
2024-05-09T22:55:39.462Z,68.00
2024-05-09T22:58:07.571Z,68.06
2024-05-09T23:00:35.610Z,67.99
2024-05-09T23:03:04.010Z,68.17
2024-05-09T23:05:32.519Z,68.37
2024-05-09T23:08:02.637Z,68.37
2024-05-09T23:10:35.947Z,68.62
2024-05-09T23:13:07.567Z,68.56
2024-05-09T23:15:39.908Z,68.65
2024-05-09T23:18:07.960Z,68.62
2024-05-09T23:20:38.969Z,68.69
2024-05-09T23:23:10.250Z,68.92
2024-05-09T23:25:43.510Z,68.82
2024-05-09T23:28:11.789Z,68.94
2024-05-09T23:30:41.214Z,69.09
2024-05-09T23:33:12.218Z,69.14
2024-05-09T23:35:44.378Z,69.33
2024-05-09T23:38:12.784Z,69.43
2024-05-09T23:40:41.905Z,69.56
2024-05-09T23:43:11.612Z,69.78
2024-05-09T23:45:40.482Z,69.77
2024-05-09T23:48:08.782Z,69.64
2024-05-09T23:50:38.775Z,69.83
2024-05-09T23:53:09.512Z,69.92
2024-05-09T23:55:38.576Z,70.06
2024-05-09T23:58:07.534Z,70.23
